sensor_id;sensor_type;location;lat;lon;timestamp;P1;durP1;ratioP1;P2;durP2;ratioP2
48765;SDS011;34570;51.836;5.002;2022-09-09T00:04:29;0.10;;;0.10;;
48765;SDS011;34570;51.836;5.002;2022-09-09T00:09:42;0.00;;;0.00;;
48765;SDS011;34570;51.836;5.002;2022-09-09T00:12:11;0.10;;;0.10;;
48765;SDS011;34570;51.836;5.002;2022-09-09T00:14:51;0.10;;;0.10;;
48765;SDS011;34570;51.836;5.002;2022-09-09T00:19:59;0.10;;;0.10;;
48765;SDS011;34570;51.836;5.002;2022-09-09T00:22:28;0.00;;;0.00;;
48765;SDS011;34570;51.836;5.002;2022-09-09T00:24:57;0.10;;;0.10;;
48765;SDS011;34570;51.836;5.002;2022-09-09T00:27:34;0.10;;;0.10;;
48765;SDS011;34570;51.836;5.002;2022-09-09T00:30:16;0.00;;;0.00;;
48765;SDS011;34570;51.836;5.002;2022-09-09T00:32:45;0.10;;;0.10;;
48765;SDS011;34570;51.836;5.002;2022-09-09T00:35:45;0.10;;;0.10;;
48765;SDS011;34570;51.836;5.002;2022-09-09T00:38:46;0.10;;;0.10;;
48765;SDS011;34570;51.836;5.002;2022-09-09T00:40:52;0.10;;;0.10;;
48765;SDS011;34570;51.836;5.002;2022-09-09T00:48:56;0.10;;;0.10;;
48765;SDS011;34570;51.836;5.002;2022-09-09T00:51:23;0.10;;;0.05;;
48765;SDS011;34570;51.836;5.002;2022-09-09T00:53:58;0.10;;;0.10;;
48765;SDS011;34570;51.836;5.002;2022-09-09T01:01:36;0.00;;;0.00;;
48765;SDS011;34570;51.836;5.002;2022-09-09T01:04:01;0.10;;;0.10;;
48765;SDS011;34570;51.836;5.002;2022-09-09T01:06:29;0.10;;;0.10;;
48765;SDS011;34570;51.836;5.002;2022-09-09T01:11:26;0.10;;;0.10;;
48765;SDS011;34570;51.836;5.002;2022-09-09T01:13:56;0.10;;;0.10;;
48765;SDS011;34570;51.836;5.002;2022-09-09T01:16:26;0.10;;;0.10;;
48765;SDS011;34570;51.836;5.002;2022-09-09T01:18:52;0.10;;;0.10;;
48765;SDS011;34570;51.836;5.002;2022-09-09T01:21:38;0.10;;;0.10;;
48765;SDS011;34570;51.836;5.002;2022-09-09T01:24:19;0.10;;;0.10;;
48765;SDS011;34570;51.836;5.002;2022-09-09T01:27:04;0.10;;;0.10;;
48765;SDS011;34570;51.836;5.002;2022-09-09T01:29:31;0.10;;;0.10;;
48765;SDS011;34570;51.836;5.002;2022-09-09T01:31:58;0.08;;;0.08;;
48765;SDS011;34570;51.836;5.002;2022-09-09T01:34:26;0.10;;;0.10;;
48765;SDS011;34570;51.836;5.002;2022-09-09T01:39:18;0.10;;;0.10;;
48765;SDS011;34570;51.836;5.002;2022-09-09T01:41:45;0.10;;;0.10;;
48765;SDS011;34570;51.836;5.002;2022-09-09T01:44:12;0.10;;;0.10;;
48765;SDS011;34570;51.836;5.002;2022-09-09T01:46:41;0.10;;;0.10;;
48765;SDS011;34570;51.836;5.002;2022-09-09T01:49:13;0.10;;;0.10;;
48765;SDS011;34570;51.836;5.002;2022-09-09T01:51:39;0.10;;;0.10;;
48765;SDS011;34570;51.836;5.002;2022-09-09T01:54:08;0.10;;;0.10;;
48765;SDS011;34570;51.836;5.002;2022-09-09T01:56:45;0.10;;;0.10;;
48765;SDS011;34570;51.836;5.002;2022-09-09T02:01:48;0.10;;;0.10;;
48765;SDS011;34570;51.836;5.002;2022-09-09T02:06:51;0.10;;;0.10;;
48765;SDS011;34570;51.836;5.002;2022-09-09T02:09:24;0.10;;;0.10;;
48765;SDS011;34570;51.836;5.002;2022-09-09T02:11:55;0.10;;;0.10;;
48765;SDS011;34570;51.836;5.002;2022-09-09T02:14:35;0.25;;;0.15;;
48765;SDS011;34570;51.836;5.002;2022-09-09T02:17:03;0.10;;;0.10;;
48765;SDS011;34570;51.836;5.002;2022-09-09T02:19:53;0.10;;;0.10;;
48765;SDS011;34570;51.836;5.002;2022-09-09T02:24:52;0.10;;;0.10;;
48765;SDS011;34570;51.836;5.002;2022-09-09T02:27:24;0.10;;;0.10;;
48765;SDS011;34570;51.836;5.002;2022-09-09T02:29:51;0.10;;;0.10;;
48765;SDS011;34570;51.836;5.002;2022-09-09T02:32:26;0.10;;;0.10;;
48765;SDS011;34570;51.836;5.002;2022-09-09T02:35:09;0.10;;;0.10;;
48765;SDS011;34570;51.836;5.002;2022-09-09T02:37:37;0.10;;;0.10;;
48765;SDS011;34570;51.836;5.002;2022-09-09T02:40:04;0.10;;;0.10;;
48765;SDS011;34570;51.836;5.002;2022-09-09T02:42:31;0.10;;;0.10;;
48765;SDS011;34570;51.836;5.002;2022-09-09T02:44:59;0.10;;;0.10;;
48765;SDS011;34570;51.836;5.002;2022-09-09T02:47:26;0.10;;;0.10;;
48765;SDS011;34570;51.836;5.002;2022-09-09T02:55:07;0.10;;;0.10;;
48765;SDS011;34570;51.836;5.002;2022-09-09T02:57:36;0.10;;;0.10;;
48765;SDS011;34570;51.836;5.002;2022-09-09T03:00:04;0.10;;;0.10;;
48765;SDS011;34570;51.836;5.002;2022-09-09T03:02:32;0.10;;;0.10;;
48765;SDS011;34570;51.836;5.002;2022-09-09T03:05:03;0.10;;;0.10;;
48765;SDS011;34570;51.836;5.002;2022-09-09T03:07:28;0.10;;;0.10;;
48765;SDS011;34570;51.836;5.002;2022-09-09T03:09:54;0.10;;;0.10;;
48765;SDS011;34570;51.836;5.002;2022-09-09T03:12:22;0.10;;;0.10;;
48765;SDS011;34570;51.836;5.002;2022-09-09T03:14:48;0.10;;;0.10;;
48765;SDS011;34570;51.836;5.002;2022-09-09T03:17:13;0.10;;;0.10;;
48765;SDS011;34570;51.836;5.002;2022-09-09T03:19:45;0.10;;;0.10;;
48765;SDS011;34570;51.836;5.002;2022-09-09T03:22:12;0.10;;;0.10;;
48765;SDS011;34570;51.836;5.002;2022-09-09T03:24:40;0.10;;;0.10;;
48765;SDS011;34570;51.836;5.002;2022-09-09T03:27:06;0.10;;;0.10;;
48765;SDS011;34570;51.836;5.002;2022-09-09T03:29:32;0.10;;;0.10;;
48765;SDS011;34570;51.836;5.002;2022-09-09T03:32:01;0.10;;;0.10;;
48765;SDS011;34570;51.836;5.002;2022-09-09T03:34:27;0.10;;;0.10;;
48765;SDS011;34570;51.836;5.002;2022-09-09T03:36:52;0.28;;;0.20;;
48765;SDS011;34570;51.836;5.002;2022-09-09T03:39:18;0.10;;;0.10;;
48765;SDS011;34570;51.836;5.002;2022-09-09T03:41:43;0.20;;;0.20;;
48765;SDS011;34570;51.836;5.002;2022-09-09T03:44:13;0.10;;;0.10;;
48765;SDS011;34570;51.836;5.002;2022-09-09T03:46:40;0.10;;;0.10;;
48765;SDS011;34570;51.836;5.002;2022-09-09T03:49:06;0.10;;;0.10;;
48765;SDS011;34570;51.836;5.002;2022-09-09T03:51:31;0.10;;;0.10;;
48765;SDS011;34570;51.836;5.002;2022-09-09T03:54:02;0.10;;;0.10;;
48765;SDS011;34570;51.836;5.002;2022-09-09T03:56:30;0.10;;;0.10;;
48765;SDS011;34570;51.836;5.002;2022-09-09T03:58:56;0.10;;;0.10;;
48765;SDS011;34570;51.836;5.002;2022-09-09T04:01:23;0.10;;;0.10;;
48765;SDS011;34570;51.836;5.002;2022-09-09T04:03:48;0.10;;;0.10;;
48765;SDS011;34570;51.836;5.002;2022-09-09T04:06:15;0.10;;;0.10;;
48765;SDS011;34570;51.836;5.002;2022-09-09T04:08:44;0.10;;;0.10;;
48765;SDS011;34570;51.836;5.002;2022-09-09T04:11:12;0.10;;;0.10;;
48765;SDS011;34570;51.836;5.002;2022-09-09T04:13:38;0.10;;;0.10;;
48765;SDS011;34570;51.836;5.002;2022-09-09T04:16:09;0.20;;;0.20;;
48765;SDS011;34570;51.836;5.002;2022-09-09T04:18:36;0.10;;;0.10;;
48765;SDS011;34570;51.836;5.002;2022-09-09T04:21:02;0.10;;;0.10;;
48765;SDS011;34570;51.836;5.002;2022-09-09T04:23:29;0.10;;;0.10;;
48765;SDS011;34570;51.836;5.002;2022-09-09T04:25:57;0.10;;;0.10;;
48765;SDS011;34570;51.836;5.002;2022-09-09T04:28:23;0.10;;;0.10;;
48765;SDS011;34570;51.836;5.002;2022-09-09T04:30:49;0.10;;;0.10;;
48765;SDS011;34570;51.836;5.002;2022-09-09T04:33:15;0.20;;;0.20;;
48765;SDS011;34570;51.836;5.002;2022-09-09T04:35:46;0.35;;;0.32;;
48765;SDS011;34570;51.836;5.002;2022-09-09T04:38:14;0.17;;;0.17;;
48765;SDS011;34570;51.836;5.002;2022-09-09T04:40:41;0.10;;;0.10;;
48765;SDS011;34570;51.836;5.002;2022-09-09T04:43:08;0.10;;;0.10;;
48765;SDS011;34570;51.836;5.002;2022-09-09T04:45:34;0.10;;;0.10;;
48765;SDS011;34570;51.836;5.002;2022-09-09T04:48:00;0.10;;;0.10;;
48765;SDS011;34570;51.836;5.002;2022-09-09T04:50:25;0.10;;;0.10;;
48765;SDS011;34570;51.836;5.002;2022-09-09T04:52:59;0.10;;;0.10;;
48765;SDS011;34570;51.836;5.002;2022-09-09T04:55:25;0.10;;;0.10;;
48765;SDS011;34570;51.836;5.002;2022-09-09T04:57:50;0.20;;;0.20;;
48765;SDS011;34570;51.836;5.002;2022-09-09T05:00:16;0.10;;;0.10;;
48765;SDS011;34570;51.836;5.002;2022-09-09T05:02:42;0.10;;;0.10;;
48765;SDS011;34570;51.836;5.002;2022-09-09T05:05:08;0.10;;;0.10;;
48765;SDS011;34570;51.836;5.002;2022-09-09T05:07:34;0.10;;;0.10;;
48765;SDS011;34570;51.836;5.002;2022-09-09T05:10:00;0.10;;;0.10;;
48765;SDS011;34570;51.836;5.002;2022-09-09T05:12:25;0.10;;;0.10;;
48765;SDS011;34570;51.836;5.002;2022-09-09T05:14:51;0.10;;;0.10;;
48765;SDS011;34570;51.836;5.002;2022-09-09T05:17:17;0.10;;;0.10;;
48765;SDS011;34570;51.836;5.002;2022-09-09T05:19:43;0.10;;;0.10;;
48765;SDS011;34570;51.836;5.002;2022-09-09T05:22:09;0.10;;;0.10;;
48765;SDS011;34570;51.836;5.002;2022-09-09T05:24:41;0.10;;;0.10;;
48765;SDS011;34570;51.836;5.002;2022-09-09T05:27:07;0.10;;;0.10;;
48765;SDS011;34570;51.836;5.002;2022-09-09T05:29:32;0.10;;;0.10;;
48765;SDS011;34570;51.836;5.002;2022-09-09T05:32:03;0.10;;;0.10;;
48765;SDS011;34570;51.836;5.002;2022-09-09T05:34:29;0.10;;;0.10;;
48765;SDS011;34570;51.836;5.002;2022-09-09T05:36:55;0.10;;;0.10;;
48765;SDS011;34570;51.836;5.002;2022-09-09T05:39:22;0.10;;;0.10;;
48765;SDS011;34570;51.836;5.002;2022-09-09T05:41:47;0.10;;;0.10;;
48765;SDS011;34570;51.836;5.002;2022-09-09T05:44:13;0.10;;;0.10;;
48765;SDS011;34570;51.836;5.002;2022-09-09T05:46:39;0.10;;;0.10;;
48765;SDS011;34570;51.836;5.002;2022-09-09T05:49:05;0.10;;;0.10;;
48765;SDS011;34570;51.836;5.002;2022-09-09T05:51:32;0.10;;;0.10;;
48765;SDS011;34570;51.836;5.002;2022-09-09T05:54:02;0.10;;;0.10;;
48765;SDS011;34570;51.836;5.002;2022-09-09T05:56:31;0.10;;;0.10;;
48765;SDS011;34570;51.836;5.002;2022-09-09T05:58:58;0.10;;;0.10;;
48765;SDS011;34570;51.836;5.002;2022-09-09T06:01:26;0.10;;;0.10;;
48765;SDS011;34570;51.836;5.002;2022-09-09T06:03:52;0.10;;;0.10;;
48765;SDS011;34570;51.836;5.002;2022-09-09T06:06:19;0.10;;;0.10;;
48765;SDS011;34570;51.836;5.002;2022-09-09T06:08:49;0.10;;;0.10;;
48765;SDS011;34570;51.836;5.002;2022-09-09T06:11:17;0.10;;;0.10;;
48765;SDS011;34570;51.836;5.002;2022-09-09T06:13:43;0.10;;;0.10;;
48765;SDS011;34570;51.836;5.002;2022-09-09T06:16:10;0.10;;;0.10;;
48765;SDS011;34570;51.836;5.002;2022-09-09T06:18:38;0.20;;;0.20;;
48765;SDS011;34570;51.836;5.002;2022-09-09T06:21:04;0.10;;;0.10;;
48765;SDS011;34570;51.836;5.002;2022-09-09T06:23:32;0.10;;;0.10;;
48765;SDS011;34570;51.836;5.002;2022-09-09T06:26:11;0.10;;;0.10;;
48765;SDS011;34570;51.836;5.002;2022-09-09T06:28:37;0.10;;;0.10;;
48765;SDS011;34570;51.836;5.002;2022-09-09T06:31:07;0.50;;;0.25;;
48765;SDS011;34570;51.836;5.002;2022-09-09T06:33:37;0.20;;;0.20;;
48765;SDS011;34570;51.836;5.002;2022-09-09T06:36:06;0.10;;;0.10;;
48765;SDS011;34570;51.836;5.002;2022-09-09T06:38:32;0.10;;;0.10;;
48765;SDS011;34570;51.836;5.002;2022-09-09T06:40:58;0.10;;;0.10;;
48765;SDS011;34570;51.836;5.002;2022-09-09T06:43:25;0.10;;;0.10;;
48765;SDS011;34570;51.836;5.002;2022-09-09T06:46:02;0.10;;;0.10;;
48765;SDS011;34570;51.836;5.002;2022-09-09T06:48:28;0.10;;;0.10;;
48765;SDS011;34570;51.836;5.002;2022-09-09T06:51:07;0.10;;;0.10;;
48765;SDS011;34570;51.836;5.002;2022-09-09T06:53:34;0.10;;;0.10;;
48765;SDS011;34570;51.836;5.002;2022-09-09T06:58:35;0.10;;;0.10;;
48765;SDS011;34570;51.836;5.002;2022-09-09T07:01:02;0.10;;;0.10;;
48765;SDS011;34570;51.836;5.002;2022-09-09T07:03:28;0.10;;;0.10;;
48765;SDS011;34570;51.836;5.002;2022-09-09T07:05:54;0.10;;;0.10;;
48765;SDS011;34570;51.836;5.002;2022-09-09T07:08:21;0.10;;;0.10;;
48765;SDS011;34570;51.836;5.002;2022-09-09T07:10:47;0.10;;;0.10;;
48765;SDS011;34570;51.836;5.002;2022-09-09T07:13:13;0.20;;;0.20;;
48765;SDS011;34570;51.836;5.002;2022-09-09T07:15:39;0.10;;;0.10;;
48765;SDS011;34570;51.836;5.002;2022-09-09T07:18:05;0.10;;;0.10;;
48765;SDS011;34570;51.836;5.002;2022-09-09T07:20:30;0.10;;;0.10;;
48765;SDS011;34570;51.836;5.002;2022-09-09T07:22:56;0.10;;;0.10;;
48765;SDS011;34570;51.836;5.002;2022-09-09T07:25:22;0.10;;;0.10;;
48765;SDS011;34570;51.836;5.002;2022-09-09T07:27:48;0.10;;;0.10;;
48765;SDS011;34570;51.836;5.002;2022-09-09T07:30:14;0.10;;;0.10;;
48765;SDS011;34570;51.836;5.002;2022-09-09T07:32:40;0.10;;;0.10;;
48765;SDS011;34570;51.836;5.002;2022-09-09T07:35:05;0.20;;;0.20;;
48765;SDS011;34570;51.836;5.002;2022-09-09T07:37:31;0.10;;;0.10;;
48765;SDS011;34570;51.836;5.002;2022-09-09T07:39:56;0.10;;;0.10;;
48765;SDS011;34570;51.836;5.002;2022-09-09T07:42:23;0.10;;;0.10;;
48765;SDS011;34570;51.836;5.002;2022-09-09T07:44:48;0.10;;;0.10;;
48765;SDS011;34570;51.836;5.002;2022-09-09T07:47:15;0.10;;;0.10;;
48765;SDS011;34570;51.836;5.002;2022-09-09T07:49:44;0.10;;;0.10;;
48765;SDS011;34570;51.836;5.002;2022-09-09T07:52:12;0.10;;;0.10;;
48765;SDS011;34570;51.836;5.002;2022-09-09T07:54:41;0.55;;;0.40;;
48765;SDS011;34570;51.836;5.002;2022-09-09T07:57:07;0.10;;;0.10;;
48765;SDS011;34570;51.836;5.002;2022-09-09T07:59:34;0.10;;;0.10;;
48765;SDS011;34570;51.836;5.002;2022-09-09T08:02:01;0.10;;;0.10;;
48765;SDS011;34570;51.836;5.002;2022-09-09T08:04:28;0.10;;;0.10;;
48765;SDS011;34570;51.836;5.002;2022-09-09T08:06:58;0.10;;;0.10;;
48765;SDS011;34570;51.836;5.002;2022-09-09T08:09:25;0.10;;;0.10;;
48765;SDS011;34570;51.836;5.002;2022-09-09T08:11:56;16.30;;;3.15;;
48765;SDS011;34570;51.836;5.002;2022-09-09T08:14:22;9.55;;;2.15;;
48765;SDS011;34570;51.836;5.002;2022-09-09T08:16:49;11.23;;;3.08;;
48765;SDS011;34570;51.836;5.002;2022-09-09T08:19:18;9.13;;;2.88;;
48765;SDS011;34570;51.836;5.002;2022-09-09T08:21:45;11.75;;;2.95;;
48765;SDS011;34570;51.836;5.002;2022-09-09T08:24:12;10.40;;;3.10;;
48765;SDS011;34570;51.836;5.002;2022-09-09T08:26:38;13.63;;;3.50;;
48765;SDS011;34570;51.836;5.002;2022-09-09T08:29:06;12.48;;;3.13;;
48765;SDS011;34570;51.836;5.002;2022-09-09T08:31:36;16.55;;;3.10;;
48765;SDS011;34570;51.836;5.002;2022-09-09T08:34:03;9.02;;;2.53;;
48765;SDS011;34570;51.836;5.002;2022-09-09T08:36:31;8.70;;;2.40;;
48765;SDS011;34570;51.836;5.002;2022-09-09T08:38:58;10.55;;;2.38;;
48765;SDS011;34570;51.836;5.002;2022-09-09T08:42:25;13.35;;;2.80;;
48765;SDS011;34570;51.836;5.002;2022-09-09T08:52:09;12.43;;;2.90;;
48765;SDS011;34570;51.836;5.002;2022-09-09T08:54:39;8.30;;;2.53;;
48765;SDS011;34570;51.836;5.002;2022-09-09T08:57:05;13.88;;;2.40;;
48765;SDS011;34570;51.836;5.002;2022-09-09T08:59:35;11.93;;;2.65;;
48765;SDS011;34570;51.836;5.002;2022-09-09T09:02:21;10.25;;;3.05;;
48765;SDS011;34570;51.836;5.002;2022-09-09T09:05:37;8.98;;;2.40;;
48765;SDS011;34570;51.836;5.002;2022-09-09T09:10:14;8.50;;;2.50;;
48765;SDS011;34570;51.836;5.002;2022-09-09T09:12:41;9.82;;;3.35;;
48765;SDS011;34570;51.836;5.002;2022-09-09T09:15:19;16.30;;;2.97;;
48765;SDS011;34570;51.836;5.002;2022-09-09T09:17:47;13.65;;;2.78;;
48765;SDS011;34570;51.836;5.002;2022-09-09T09:20:15;8.02;;;2.92;;
48765;SDS011;34570;51.836;5.002;2022-09-09T09:22:44;10.90;;;3.03;;
48765;SDS011;34570;51.836;5.002;2022-09-09T09:25:23;8.48;;;3.13;;
48765;SDS011;34570;51.836;5.002;2022-09-09T09:30:22;9.10;;;2.17;;
48765;SDS011;34570;51.836;5.002;2022-09-09T09:35:20;6.60;;;2.20;;
48765;SDS011;34570;51.836;5.002;2022-09-09T09:37:45;10.13;;;2.97;;
48765;SDS011;34570;51.836;5.002;2022-09-09T09:40:13;11.20;;;3.05;;
48765;SDS011;34570;51.836;5.002;2022-09-09T09:45:40;7.45;;;2.60;;
48765;SDS011;34570;51.836;5.002;2022-09-09T09:48:13;11.98;;;3.15;;
48765;SDS011;34570;51.836;5.002;2022-09-09T09:50:52;12.15;;;2.78;;
48765;SDS011;34570;51.836;5.002;2022-09-09T09:53:28;8.75;;;2.20;;
48765;SDS011;34570;51.836;5.002;2022-09-09T09:55:59;7.47;;;2.50;;
48765;SDS011;34570;51.836;5.002;2022-09-09T09:58:26;10.85;;;2.50;;
48765;SDS011;34570;51.836;5.002;2022-09-09T10:00:53;10.90;;;2.58;;
48765;SDS011;34570;51.836;5.002;2022-09-09T10:03:32;13.65;;;3.20;;
48765;SDS011;34570;51.836;5.002;2022-09-09T10:06:00;7.85;;;2.17;;
48765;SDS011;34570;51.836;5.002;2022-09-09T10:08:26;11.32;;;2.58;;
48765;SDS011;34570;51.836;5.002;2022-09-09T10:16:12;10.88;;;2.17;;
48765;SDS011;34570;51.836;5.002;2022-09-09T10:21:41;8.43;;;1.85;;
48765;SDS011;34570;51.836;5.002;2022-09-09T10:34:21;7.57;;;1.90;;
48765;SDS011;34570;51.836;5.002;2022-09-09T10:36:51;6.22;;;1.60;;
48765;SDS011;34570;51.836;5.002;2022-09-09T10:42:08;7.22;;;1.42;;
48765;SDS011;34570;51.836;5.002;2022-09-09T10:52:30;7.28;;;2.05;;
48765;SDS011;34570;51.836;5.002;2022-09-09T10:55:14;5.68;;;2.13;;
48765;SDS011;34570;51.836;5.002;2022-09-09T10:57:44;4.40;;;1.80;;
48765;SDS011;34570;51.836;5.002;2022-09-09T11:00:17;10.27;;;1.63;;
48765;SDS011;34570;51.836;5.002;2022-09-09T11:02:43;5.07;;;1.52;;
48765;SDS011;34570;51.836;5.002;2022-09-09T11:12:49;7.78;;;2.22;;
48765;SDS011;34570;51.836;5.002;2022-09-09T11:15:17;7.88;;;2.20;;
48765;SDS011;34570;51.836;5.002;2022-09-09T11:17:52;4.70;;;2.03;;
48765;SDS011;34570;51.836;5.002;2022-09-09T11:20:20;7.30;;;2.10;;
48765;SDS011;34570;51.836;5.002;2022-09-09T11:22:50;9.00;;;2.92;;
48765;SDS011;34570;51.836;5.002;2022-09-09T11:40:20;7.05;;;1.85;;
48765;SDS011;34570;51.836;5.002;2022-09-09T11:42:48;5.78;;;1.73;;
48765;SDS011;34570;51.836;5.002;2022-09-09T11:45:24;8.20;;;2.35;;
48765;SDS011;34570;51.836;5.002;2022-09-09T11:47:53;4.82;;;1.67;;
48765;SDS011;34570;51.836;5.002;2022-09-09T11:52:47;9.20;;;2.35;;
48765;SDS011;34570;51.836;5.002;2022-09-09T11:55:30;7.32;;;2.40;;
48765;SDS011;34570;51.836;5.002;2022-09-09T11:57:59;8.27;;;2.10;;
48765;SDS011;34570;51.836;5.002;2022-09-09T12:00:44;7.43;;;2.03;;
48765;SDS011;34570;51.836;5.002;2022-09-09T12:03:55;7.65;;;2.58;;
48765;SDS011;34570;51.836;5.002;2022-09-09T12:05:56;6.93;;;2.10;;
48765;SDS011;34570;51.836;5.002;2022-09-09T12:08:29;6.32;;;2.25;;
48765;SDS011;34570;51.836;5.002;2022-09-09T12:10:56;6.85;;;2.13;;
48765;SDS011;34570;51.836;5.002;2022-09-09T12:13:22;8.88;;;2.30;;
48765;SDS011;34570;51.836;5.002;2022-09-09T12:15:49;5.88;;;2.25;;
48765;SDS011;34570;51.836;5.002;2022-09-09T12:19:02;7.68;;;2.35;;
48765;SDS011;34570;51.836;5.002;2022-09-09T12:26:31;5.97;;;2.33;;
48765;SDS011;34570;51.836;5.002;2022-09-09T12:34:06;11.25;;;2.50;;
48765;SDS011;34570;51.836;5.002;2022-09-09T12:36:35;8.27;;;2.70;;
48765;SDS011;34570;51.836;5.002;2022-09-09T12:39:10;6.65;;;2.50;;
48765;SDS011;34570;51.836;5.002;2022-09-09T12:41:36;8.30;;;2.25;;
48765;SDS011;34570;51.836;5.002;2022-09-09T12:44:10;7.80;;;2.33;;
48765;SDS011;34570;51.836;5.002;2022-09-09T12:46:38;6.90;;;1.77;;
48765;SDS011;34570;51.836;5.002;2022-09-09T12:49:05;4.25;;;1.95;;
48765;SDS011;34570;51.836;5.002;2022-09-09T12:51:32;11.57;;;2.17;;
48765;SDS011;34570;51.836;5.002;2022-09-09T12:53:58;8.13;;;2.00;;
48765;SDS011;34570;51.836;5.002;2022-09-09T12:56:24;6.20;;;1.88;;
48765;SDS011;34570;51.836;5.002;2022-09-09T12:58:52;8.52;;;2.10;;
48765;SDS011;34570;51.836;5.002;2022-09-09T13:03:47;6.50;;;2.10;;
48765;SDS011;34570;51.836;5.002;2022-09-09T13:06:16;7.43;;;2.00;;
48765;SDS011;34570;51.836;5.002;2022-09-09T13:08:43;3.97;;;1.90;;
48765;SDS011;34570;51.836;5.002;2022-09-09T13:11:10;5.70;;;2.03;;
48765;SDS011;34570;51.836;5.002;2022-09-09T13:13:38;5.05;;;1.85;;
48765;SDS011;34570;51.836;5.002;2022-09-09T13:16:05;9.10;;;1.95;;
48765;SDS011;34570;51.836;5.002;2022-09-09T13:18:37;4.25;;;1.77;;
48765;SDS011;34570;51.836;5.002;2022-09-09T13:21:05;5.82;;;2.10;;
48765;SDS011;34570;51.836;5.002;2022-09-09T13:23:32;7.13;;;1.95;;
48765;SDS011;34570;51.836;5.002;2022-09-09T13:25:59;15.07;;;2.50;;
48765;SDS011;34570;51.836;5.002;2022-09-09T13:28:26;5.45;;;2.22;;
48765;SDS011;34570;51.836;5.002;2022-09-09T13:30:58;8.77;;;2.05;;
48765;SDS011;34570;51.836;5.002;2022-09-09T13:33:34;3.55;;;1.73;;
48765;SDS011;34570;51.836;5.002;2022-09-09T13:36:03;5.95;;;2.03;;
48765;SDS011;34570;51.836;5.002;2022-09-09T13:38:31;5.55;;;1.52;;
48765;SDS011;34570;51.836;5.002;2022-09-09T13:41:03;8.82;;;2.08;;
48765;SDS011;34570;51.836;5.002;2022-09-09T13:43:31;4.80;;;1.75;;
48765;SDS011;34570;51.836;5.002;2022-09-09T13:46:23;7.72;;;1.73;;
48765;SDS011;34570;51.836;5.002;2022-09-09T13:48:42;4.63;;;1.55;;
48765;SDS011;34570;51.836;5.002;2022-09-09T13:53:45;4.37;;;1.73;;
48765;SDS011;34570;51.836;5.002;2022-09-09T13:56:10;10.32;;;1.42;;
48765;SDS011;34570;51.836;5.002;2022-09-09T13:58:36;5.05;;;1.60;;
48765;SDS011;34570;51.836;5.002;2022-09-09T14:01:01;4.75;;;1.45;;
48765;SDS011;34570;51.836;5.002;2022-09-09T14:03:27;9.48;;;1.50;;
48765;SDS011;34570;51.836;5.002;2022-09-09T14:05:52;9.05;;;1.25;;
48765;SDS011;34570;51.836;5.002;2022-09-09T14:08:28;4.38;;;1.42;;
48765;SDS011;34570;51.836;5.002;2022-09-09T14:11:02;5.75;;;1.38;;
48765;SDS011;34570;51.836;5.002;2022-09-09T14:13:28;7.68;;;1.30;;
48765;SDS011;34570;51.836;5.002;2022-09-09T14:15:53;4.43;;;1.00;;
48765;SDS011;34570;51.836;5.002;2022-09-09T14:18:19;5.45;;;0.80;;
48765;SDS011;34570;51.836;5.002;2022-09-09T14:20:44;5.47;;;0.82;;
48765;SDS011;34570;51.836;5.002;2022-09-09T14:23:11;5.75;;;0.70;;
48765;SDS011;34570;51.836;5.002;2022-09-09T14:25:39;1.45;;;0.70;;
48765;SDS011;34570;51.836;5.002;2022-09-09T14:28:04;5.10;;;1.25;;
48765;SDS011;34570;51.836;5.002;2022-09-09T14:30:29;4.07;;;1.05;;
48765;SDS011;34570;51.836;5.002;2022-09-09T14:32:55;4.25;;;1.00;;
48765;SDS011;34570;51.836;5.002;2022-09-09T14:35:21;5.82;;;1.20;;
48765;SDS011;34570;51.836;5.002;2022-09-09T14:37:47;1.45;;;0.80;;
48765;SDS011;34570;51.836;5.002;2022-09-09T14:40:13;4.65;;;1.10;;
48765;SDS011;34570;51.836;5.002;2022-09-09T14:42:40;5.55;;;1.20;;
48765;SDS011;34570;51.836;5.002;2022-09-09T14:45:06;3.05;;;1.00;;
48765;SDS011;34570;51.836;5.002;2022-09-09T14:47:32;1.92;;;0.90;;
48765;SDS011;34570;51.836;5.002;2022-09-09T14:49:57;4.13;;;1.10;;
48765;SDS011;34570;51.836;5.002;2022-09-09T14:52:23;3.65;;;0.70;;
48765;SDS011;34570;51.836;5.002;2022-09-09T14:54:48;5.07;;;0.80;;
48765;SDS011;34570;51.836;5.002;2022-09-09T14:57:14;4.22;;;0.90;;
48765;SDS011;34570;51.836;5.002;2022-09-09T14:59:40;3.17;;;0.75;;
48765;SDS011;34570;51.836;5.002;2022-09-09T15:02:05;7.82;;;0.82;;
48765;SDS011;34570;51.836;5.002;2022-09-09T15:04:32;1.58;;;0.60;;
48765;SDS011;34570;51.836;5.002;2022-09-09T15:06:58;1.38;;;0.50;;
48765;SDS011;34570;51.836;5.002;2022-09-09T15:09:24;2.38;;;0.63;;
48765;SDS011;34570;51.836;5.002;2022-09-09T15:11:49;3.00;;;0.50;;
48765;SDS011;34570;51.836;5.002;2022-09-09T15:14:15;5.03;;;0.50;;
48765;SDS011;34570;51.836;5.002;2022-09-09T15:16:40;3.08;;;0.60;;
48765;SDS011;34570;51.836;5.002;2022-09-09T15:19:06;3.50;;;0.60;;
48765;SDS011;34570;51.836;5.002;2022-09-09T15:21:32;3.97;;;0.82;;
48765;SDS011;34570;51.836;5.002;2022-09-09T15:23:58;2.88;;;0.60;;
48765;SDS011;34570;51.836;5.002;2022-09-09T15:26:24;2.95;;;0.60;;
48765;SDS011;34570;51.836;5.002;2022-09-09T15:28:51;2.30;;;0.75;;
48765;SDS011;34570;51.836;5.002;2022-09-09T15:31:18;2.03;;;0.80;;
48765;SDS011;34570;51.836;5.002;2022-09-09T15:34:02;4.10;;;1.20;;
48765;SDS011;34570;51.836;5.002;2022-09-09T15:36:29;4.20;;;0.82;;
48765;SDS011;34570;51.836;5.002;2022-09-09T15:38:57;2.70;;;0.70;;
48765;SDS011;34570;51.836;5.002;2022-09-09T15:41:23;1.92;;;0.77;;
48765;SDS011;34570;51.836;5.002;2022-09-09T15:43:49;2.25;;;0.70;;
48765;SDS011;34570;51.836;5.002;2022-09-09T15:46:22;3.40;;;0.80;;
48765;SDS011;34570;51.836;5.002;2022-09-09T15:48:53;3.35;;;1.10;;
48765;SDS011;34570;51.836;5.002;2022-09-09T15:51:19;3.67;;;1.00;;
48765;SDS011;34570;51.836;5.002;2022-09-09T15:53:45;2.78;;;0.80;;
48765;SDS011;34570;51.836;5.002;2022-09-09T15:56:10;4.38;;;0.95;;
48765;SDS011;34570;51.836;5.002;2022-09-09T15:58:36;4.10;;;1.08;;
48765;SDS011;34570;51.836;5.002;2022-09-09T16:01:06;11.15;;;1.25;;
48765;SDS011;34570;51.836;5.002;2022-09-09T16:03:35;5.50;;;1.23;;
48765;SDS011;34570;51.836;5.002;2022-09-09T16:06:00;2.85;;;1.27;;
48765;SDS011;34570;51.836;5.002;2022-09-09T16:08:32;7.20;;;1.35;;
48765;SDS011;34570;51.836;5.002;2022-09-09T16:11:04;5.32;;;1.58;;
48765;SDS011;34570;51.836;5.002;2022-09-09T16:13:32;3.42;;;1.35;;
48765;SDS011;34570;51.836;5.002;2022-09-09T16:15:58;3.45;;;1.10;;
48765;SDS011;34570;51.836;5.002;2022-09-09T16:18:24;7.38;;;1.10;;
48765;SDS011;34570;51.836;5.002;2022-09-09T16:20:53;2.17;;;0.95;;
48765;SDS011;34570;51.836;5.002;2022-09-09T16:23:19;5.10;;;1.27;;
48765;SDS011;34570;51.836;5.002;2022-09-09T16:25:52;9.77;;;1.40;;
48765;SDS011;34570;51.836;5.002;2022-09-09T16:28:18;2.42;;;0.85;;
48765;SDS011;34570;51.836;5.002;2022-09-09T16:30:43;2.30;;;0.80;;
48765;SDS011;34570;51.836;5.002;2022-09-09T16:33:09;12.40;;;1.40;;
48765;SDS011;34570;51.836;5.002;2022-09-09T16:35:38;4.78;;;1.10;;
48765;SDS011;34570;51.836;5.002;2022-09-09T16:38:05;7.43;;;1.38;;
48765;SDS011;34570;51.836;5.002;2022-09-09T16:40:38;3.30;;;0.90;;
48765;SDS011;34570;51.836;5.002;2022-09-09T16:43:04;4.20;;;0.95;;
48765;SDS011;34570;51.836;5.002;2022-09-09T16:45:30;3.47;;;0.85;;
48765;SDS011;34570;51.836;5.002;2022-09-09T16:47:57;4.88;;;1.35;;
48765;SDS011;34570;51.836;5.002;2022-09-09T16:50:22;6.47;;;1.10;;
48765;SDS011;34570;51.836;5.002;2022-09-09T16:52:48;2.70;;;1.00;;
48765;SDS011;34570;51.836;5.002;2022-09-09T16:55:13;3.92;;;1.25;;
48765;SDS011;34570;51.836;5.002;2022-09-09T16:57:39;5.50;;;1.30;;
48765;SDS011;34570;51.836;5.002;2022-09-09T17:00:04;6.38;;;1.13;;
48765;SDS011;34570;51.836;5.002;2022-09-09T17:02:32;6.00;;;1.35;;